Time;durP1;ratioP1;P1;durP2;ratioP2;P2;SDS_P1;SDS_P2;PMS_P1;PMS_P2;Temp;Humidity;BMP_temperature;BMP_pressure;BME280_temperature;BME280_humidity;BME280_pressure;Samples;Min_cycle;Max_cycle;Signal;HPM_P1;HPM_P2
2022/03/11 07:07:42;;;;;;;;;10.00;8.00;;;;;14.26;100.00;100640.75;6015011;23;47160;-93
2022/03/11 07:10:10;;;;;;;;;10.33;10.00;;;;;14.38;100.00;100638.44;4953154;28;48265;-96
2022/03/11 07:13:07;;;;;;;;;8.33;7.33;;;;;14.34;100.00;100620.75;4940726;28;45460;-93
2022/03/11 07:15:32;;;;;;;;;11.33;10.00;;;;;14.38;100.00;100629.66;4922966;28;45357;-95
2022/03/11 07:18:03;;;;;;;;;8.67;8.67;;;;;14.51;100.00;100637.06;4954438;28;45553;-96
2022/03/11 07:20:31;;;;;;;;;9.33;8.67;;;;;14.41;100.00;100630.63;4935255;28;47509;-96
2022/03/11 07:22:57;;;;;;;;;10.67;8.67;;;;;14.44;100.00;100634.19;4939457;28;45544;-94
2022/03/11 07:25:22;;;;;;;;;5.00;5.00;;;;;14.38;100.00;100627.03;4922772;28;45419;-94
2022/03/11 07:27:48;;;;;;;;;5.33;5.33;;;;;14.45;100.00;100630.72;4929549;28;45345;-94
2022/03/11 07:30:14;;;;;;;;;11.00;7.33;;;;;14.50;100.00;100632.63;4933688;28;47638;-95
2022/03/11 07:32:41;;;;;;;;;13.00;9.67;;;;;14.56;100.00;100628.38;4921843;28;49174;-95
2022/03/11 07:35:09;;;;;;;;;11.67;9.00;;;;;14.61;100.00;100629.41;4937285;28;45313;-95
2022/03/11 07:37:35;;;;;;;;;10.00;9.00;;;;;14.66;100.00;100622.50;4928760;28;45716;-95
2022/03/11 07:40:02;;;;;;;;;9.67;9.33;;;;;14.72;100.00;100622.63;4934103;28;45657;-94
2022/03/11 07:42:28;;;;;;;;;9.33;8.00;;;;;14.75;100.00;100620.06;4946967;28;45446;-96
2022/03/11 07:44:53;;;;;;;;;8.00;8.00;;;;;14.82;100.00;100612.28;4941287;28;45529;-95
2022/03/11 07:47:18;;;;;;;;;8.33;8.00;;;;;14.84;100.00;100606.19;4928402;28;45764;-95
2022/03/11 07:49:44;;;;;;;;;10.00;9.00;;;;;14.94;100.00;100604.72;4940245;28;46094;-95
2022/03/11 07:52:15;;;;;;;;;9.67;8.33;;;;;15.01;100.00;100607.50;4943565;28;45415;-95
2022/03/11 07:54:41;;;;;;;;;12.33;10.00;;;;;15.02;100.00;100604.94;4948610;28;45372;-96
2022/03/11 07:57:06;;;;;;;;;8.00;8.00;;;;;15.05;100.00;100598.81;4903239;28;45474;-95
2022/03/11 07:59:33;;;;;;;;;8.00;8.00;;;;;15.13;100.00;100598.97;4949860;28;46250;-96
2022/03/11 08:01:59;;;;;;;;;7.33;7.33;;;;;15.22;100.00;100596.56;4927773;28;45430;-96
2022/03/11 08:04:25;;;;;;;;;12.67;9.33;;;;;15.29;100.00;100595.84;4944317;28;45415;-96
2022/03/11 08:06:51;;;;;;;;;8.00;6.67;;;;;15.32;100.00;100591.50;4931517;28;45405;-96
2022/03/11 08:09:16;;;;;;;;;6.67;6.67;;;;;15.36;100.00;100602.16;4922189;28;45425;-96
2022/03/11 08:11:42;;;;;;;;;9.67;8.33;;;;;15.38;100.00;100587.25;4939948;28;45542;-96
2022/03/11 08:14:07;;;;;;;;;10.00;9.00;;;;;15.46;100.00;100586.53;4945696;28;45744;-96
2022/03/11 08:16:32;;;;;;;;;10.33;8.67;;;;;15.62;100.00;100590.38;4920849;28;45572;-96
2022/03/11 08:18:58;;;;;;;;;10.33;8.67;;;;;15.75;100.00;100575.69;4930460;28;48042;-96
2022/03/11 08:21:24;;;;;;;;;11.00;8.00;;;;;15.91;100.00;100573.34;4931823;28;45403;-96
2022/03/11 08:23:49;;;;;;;;;10.00;9.00;;;;;16.00;100.00;100580.59;4939716;28;45518;-95
2022/03/11 08:26:14;;;;;;;;;6.33;6.33;;;;;16.11;100.00;100572.88;4925704;28;45536;-96
2022/03/11 08:28:40;;;;;;;;;7.67;7.67;;;;;16.27;100.00;100580.28;4928891;28;48010;-96
2022/03/11 08:31:05;;;;;;;;;11.00;9.33;;;;;16.48;100.00;100580.66;4930946;28;45505;-96
2022/03/11 08:33:32;;;;;;;;;9.33;7.33;;;;;16.63;100.00;100565.03;4939839;28;45359;-96
2022/03/11 08:35:58;;;;;;;;;8.33;7.33;;;;;16.73;100.00;100560.78;4945543;28;45288;-96
2022/03/11 08:38:23;;;;;;;;;7.00;7.00;;;;;16.76;100.00;100559.94;4940235;28;47156;-96
2022/03/11 08:40:49;;;;;;;;;10.00;10.00;;;;;16.79;100.00;100554.69;4953649;28;45617;-96
2022/03/11 08:43:14;;;;;;;;;7.00;7.00;;;;;16.77;100.00;100552.88;4924492;28;45536;-95
2022/03/11 08:45:39;;;;;;;;;7.00;6.67;;;;;16.78;100.00;100552.00;4956448;28;45611;-96
2022/03/11 08:48:05;;;;;;;;;9.00;8.00;;;;;16.82;100.00;100556.50;4943641;28;45518;-94
2022/03/11 08:50:31;;;;;;;;;11.67;9.00;;;;;16.86;100.00;100550.38;4926491;28;45428;-93
2022/03/11 08:52:56;;;;;;;;;6.00;5.00;;;;;16.98;100.00;100555.00;4943837;28;45576;-92
2022/03/11 08:55:22;;;;;;;;;4.33;3.67;;;;;17.11;100.00;100550.75;4939389;28;45778;-92
2022/03/11 08:57:51;;;;;;;;;4.00;4.00;;;;;17.27;100.00;100548.34;4938036;28;45817;-92
2022/03/11 09:00:19;;;;;;;;;9.00;5.33;;;;;17.44;100.00;100548.59;4923117;28;45392;-92
2022/03/11 09:02:45;;;;;;;;;6.33;5.67;;;;;17.55;100.00;100559.34;4932728;28;45693;-92
2022/03/11 09:05:11;;;;;;;;;6.67;6.00;;;;;17.68;100.00;100556.88;4924534;28;45638;-94
2022/03/11 09:07:36;;;;;;;;;8.67;5.67;;;;;17.84;100.00;100542.91;4947123;28;45639;-94
2022/03/11 09:10:05;;;;;;;;;6.33;6.33;;;;;18.03;100.00;100544.88;4958498;28;45443;-95
2022/03/11 09:12:30;;;;;;;;;4.00;4.00;;;;;18.06;100.00;100540.50;4950239;28;45444;-91
2022/03/11 09:14:56;;;;;;;;;6.67;4.67;;;;;18.18;100.00;100531.78;4928247;28;46680;-95
2022/03/11 09:17:21;;;;;;;;;6.33;5.00;;;;;18.26;100.00;100529.22;4949442;28;45572;-91
2022/03/11 09:19:47;;;;;;;;;11.33;9.67;;;;;18.36;100.00;100529.31;4950976;28;45545;-95
2022/03/11 09:22:13;;;;;;;;;8.33;7.33;;;;;18.39;100.00;100534.66;4932705;28;45777;-92
2022/03/11 09:24:40;;;;;;;;;4.00;4.00;;;;;18.29;100.00;100528.38;4951695;28;45324;-94
2022/03/11 09:27:08;;;;;;;;;5.00;3.67;;;;;18.20;100.00;100531.81;4953813;28;46861;-92
2022/03/11 09:29:33;;;;;;;;;4.00;4.00;;;;;18.16;100.00;100538.84;4929403;28;46353;-92
2022/03/11 09:31:59;;;;;;;;;4.33;4.33;;;;;18.21;100.00;100533.59;4927893;28;45404;-93
2022/03/11 09:34:25;;;;;;;;;6.00;5.33;;;;;18.26;100.00;100521.25;4942596;28;45364;-93
2022/03/11 09:36:54;;;;;;;;;6.00;5.00;;;;;18.34;100.00;100516.03;4963887;28;47103;-94
2022/03/11 09:39:20;;;;;;;;;4.00;4.00;;;;;18.50;100.00;100522.34;4925169;28;45849;-94
2022/03/11 09:41:47;;;;;;;;;6.33;5.00;;;;;18.59;100.00;100513.56;4916848;28;45460;-91
2022/03/11 09:44:16;;;;;;;;;3.00;3.00;;;;;18.74;100.00;100515.47;4945905;28;45482;-96
2022/03/11 09:46:42;;;;;;;;;8.67;5.00;;;;;18.71;100.00;100515.44;4957280;28;45575;-94
2022/03/11 09:49:08;;;;;;;;;3.00;3.00;;;;;18.70;100.00;100508.34;4930362;28;47249;-93
2022/03/11 09:51:35;;;;;;;;;5.00;5.00;;;;;18.80;100.00;100511.06;4957099;28;45494;-93
2022/03/11 09:54:01;;;;;;;;;6.33;3.00;;;;;18.87;100.00;100512.88;4936464;28;45720;-92
2022/03/11 09:56:26;;;;;;;;;7.00;5.67;;;;;18.90;100.00;100499.63;4925212;28;47344;-94
2022/03/11 09:58:53;;;;;;;;;4.00;3.67;;;;;18.89;100.00;100500.47;4960512;28;45616;-93
2022/03/11 10:01:18;;;;;;;;;3.00;3.00;;;;;18.66;100.00;100503.88;4953641;28;45496;-96
2022/03/11 10:03:44;;;;;;;;;4.00;4.00;;;;;18.37;100.00;100486.81;4939197;28;46368;-94
2022/03/11 10:06:09;;;;;;;;;6.67;6.00;;;;;18.07;100.00;100490.91;4944608;28;46427;-95
2022/03/11 10:08:38;;;;;;;;;5.00;5.00;;;;;17.87;100.00;100486.28;4942821;28;45539;-95
2022/03/11 10:11:20;;;;;;;;;5.33;5.33;;;;;17.63;100.00;100475.41;4950473;28;45378;-96
2022/03/11 10:13:46;;;;;;;;;3.67;3.33;;;;;17.36;100.00;100473.31;4928242;28;45352;-94
2022/03/11 10:16:17;;;;;;;;;11.00;4.00;;;;;17.39;100.00;100483.97;4937150;28;46757;-96
2022/03/11 10:18:53;;;;;;;;;6.33;5.00;;;;;17.37;100.00;100501.66;4930607;28;45575;-95
2022/03/11 10:21:18;;;;;;;;;6.67;6.67;;;;;17.25;100.00;100503.25;4934232;28;45411;-95
2022/03/11 10:23:50;;;;;;;;;8.00;6.67;;;;;17.46;100.00;100495.56;4941986;28;45506;-96
2022/03/11 10:26:34;;;;;;;;;3.00;3.00;;;;;17.71;100.00;100501.16;4936213;28;47463;-96
2022/03/11 10:29:01;;;;;;;;;3.67;3.67;;;;;17.83;100.00;100495.97;4941629;28;45533;-95
2022/03/11 10:31:43;;;;;;;;;4.00;4.00;;;;;18.19;100.00;100468.91;4922336;28;45516;-96
2022/03/11 10:34:22;;;;;;;;;6.33;5.00;;;;;18.35;100.00;100479.72;4924511;28;45489;-93
2022/03/11 10:36:50;;;;;;;;;5.00;4.33;;;;;18.19;100.00;100479.53;4929160;28;47366;-95
2022/03/11 10:39:18;;;;;;;;;3.67;3.67;;;;;18.10;100.00;100493.63;4965131;28;46079;-96
2022/03/11 10:41:43;;;;;;;;;5.67;5.67;;;;;17.91;100.00;100495.19;4957233;28;45478;-94
2022/03/11 10:44:09;;;;;;;;;4.33;3.00;;;;;17.85;100.00;100506.63;4940957;28;45488;-96
2022/03/11 10:46:35;;;;;;;;;4.00;3.00;;;;;17.82;100.00;100506.59;4947182;28;45740;-96
2022/03/11 10:49:00;;;;;;;;;4.33;4.33;;;;;17.65;100.00;100500.22;4945587;28;45437;-96
2022/03/11 10:51:32;;;;;;;;;6.33;5.00;;;;;17.60;100.00;100507.22;4927002;28;45654;-96
2022/03/11 10:54:02;;;;;;;;;9.33;8.67;;;;;17.49;100.00;100498.25;4947274;28;45422;-96
2022/03/11 10:56:33;;;;;;;;;5.00;4.33;;;;;17.41;100.00;100504.34;4941716;28;45744;-96
2022/03/11 10:58:59;;;;;;;;;5.00;5.00;;;;;17.46;100.00;100525.63;4951092;28;45214;-96
2022/03/11 11:01:41;;;;;;;;;4.33;4.00;;;;;17.59;100.00;100501.91;4944245;28;45484;-96
2022/03/11 11:04:09;;;;;;;;;5.00;4.00;;;;;17.48;100.00;100509.72;4942738;28;45456;-96
2022/03/11 11:06:36;;;;;;;;;6.00;6.00;;;;;17.28;100.00;100498.00;4954282;28;45465;-95
2022/03/11 11:09:03;;;;;;;;;3.33;3.00;;;;;17.20;100.00;100518.22;4940326;28;45586;-96
2022/03/11 11:11:30;;;;;;;;;3.67;3.67;;;;;17.10;100.00;100514.50;4937036;28;45290;-96
2022/03/11 11:13:56;;;;;;;;;5.67;5.67;;;;;16.93;100.00;100514.25;4936662;28;45523;-95
2022/03/11 11:16:26;;;;;;;;;5.00;4.00;;;;;16.84;100.00;100512.34;4932083;28;46632;-95
2022/03/11 11:18:52;;;;;;;;;4.67;4.67;;;;;16.63;100.00;100519.09;4944080;28;45874;-95
2022/03/11 11:21:24;;;;;;;;;11.67;8.67;;;;;16.58;100.00;100515.47;4948996;28;45397;-95
2022/03/11 11:23:53;;;;;;;;;8.67;6.00;;;;;16.49;100.00;100509.13;4921491;28;45682;-91
2022/03/11 11:26:20;;;;;;;;;8.00;6.00;;;;;16.40;100.00;100493.09;4945604;28;45487;-94
2022/03/11 11:28:46;;;;;;;;;5.67;4.67;;;;;16.36;100.00;100488.63;4930759;28;45366;-95
2022/03/11 11:31:15;;;;;;;;;9.33;8.00;;;;;16.35;100.00;100508.91;4931875;28;45639;-95
2022/03/11 11:33:44;;;;;;;;;9.33;9.33;;;;;16.38;100.00;100527.50;4961413;28;45831;-94
2022/03/11 11:36:09;;;;;;;;;12.00;7.00;;;;;16.30;100.00;100534.41;4929124;28;46941;-95
2022/03/11 11:38:47;;;;;;;;;11.00;9.33;;;;;16.37;100.00;100544.25;4928482;28;45484;-96
2022/03/11 11:41:18;;;;;;;;;10.33;8.33;;;;;16.44;100.00;100549.69;4954260;28;45540;-93
2022/03/11 11:43:58;;;;;;;;;9.67;6.33;;;;;16.42;100.00;100550.53;4943811;28;45500;-94
2022/03/11 11:46:25;;;;;;;;;10.00;10.00;;;;;16.42;100.00;100563.78;4933953;28;46172;-94
2022/03/11 11:48:51;;;;;;;;;9.33;6.00;;;;;16.45;100.00;100559.38;4928014;28;45775;-92
2022/03/11 11:51:19;;;;;;;;;10.00;8.00;;;;;16.58;100.00;100541.97;4945064;28;45656;-96
2022/03/11 11:53:53;;;;;;;;;9.67;7.00;;;;;16.69;100.00;100540.41;4955334;28;45363;-96
2022/03/11 11:56:30;;;;;;;;;11.67;9.67;;;;;16.83;100.00;100547.66;4917500;28;47615;-94
2022/03/11 11:58:57;;;;;;;;;8.00;8.00;;;;;16.84;100.00;100546.81;4920740;28;45460;-96
2022/03/11 12:01:53;;;;;;;;;9.00;9.00;;;;;16.92;100.00;100539.88;4928506;28;45300;-91
2022/03/11 12:04:19;;;;;;;;;15.00;14.00;;;;;17.05;100.00;100532.09;4919094;28;45483;-93
2022/03/11 12:07:05;;;;;;;;;9.00;6.67;;;;;17.41;100.00;100536.19;4930876;28;47318;-93
2022/03/11 12:09:39;;;;;;;;;11.33;10.00;;;;;17.51;100.00;100531.00;4934419;28;45491;-93
2022/03/11 12:12:20;;;;;;;;;8.67;8.67;;;;;17.42;100.00;100522.03;4926455;28;45331;-91
2022/03/11 12:15:01;;;;;;;;;8.00;7.33;;;;;17.60;100.00;100531.09;4936221;28;45431;-92
2022/03/11 12:17:41;;;;;;;;;8.33;7.33;;;;;17.65;100.00;100516.13;4939019;28;45884;-92
2022/03/11 12:20:26;;;;;;;;;8.67;6.33;;;;;17.68;100.00;100519.72;4934880;28;45528;-91
2022/03/11 12:23:00;;;;;;;;;8.00;8.00;;;;;17.70;100.00;100523.28;4949352;28;45608;-92
2022/03/11 12:25:28;;;;;;;;;7.00;7.00;;;;;17.65;100.00;100533.84;4919370;28;45845;-95
2022/03/11 12:28:27;;;;;;;;;11.00;10.00;;;;;17.68;100.00;100533.84;4926097;28;47213;-95
2022/03/11 12:30:55;;;;;;;;;8.33;8.33;;;;;17.56;100.00;100524.00;4872725;29;45402;-94
2022/03/11 12:33:23;;;;;;;;;8.00;7.00;;;;;17.55;100.00;100529.28;4866943;29;45382;-93
2022/03/11 12:35:55;;;;;;;;;9.00;7.67;;;;;17.52;100.00;100515.09;4860295;29;45534;-93
2022/03/11 12:38:24;;;;;;;;;9.33;8.00;;;;;17.53;100.00;100522.19;4857821;29;45600;-93
2022/03/11 12:40:50;;;;;;;;;8.00;6.67;;;;;17.51;100.00;100523.03;4860409;29;45453;-93
2022/03/11 12:43:20;;;;;;;;;7.67;6.00;;;;;17.53;100.00;100527.50;4859103;29;45424;-92
2022/03/11 12:45:48;;;;;;;;;9.67;9.67;;;;;17.50;100.00;100508.88;4845255;29;45471;-92
2022/03/11 12:48:16;;;;;;;;;9.67;9.67;;;;;17.50;100.00;100510.63;4841962;29;47383;-93
2022/03/11 12:50:43;;;;;;;;;11.00;9.67;;;;;17.41;100.00;100512.31;4841586;29;45659;-93
2022/03/11 12:53:10;;;;;;;;;6.00;6.00;;;;;17.44;100.00;100516.78;4857428;29;45450;-92
2022/03/11 12:55:38;;;;;;;;;13.00;9.67;;;;;17.43;100.00;100520.28;4842245;29;45937;-92
2022/03/11 12:58:06;;;;;;;;;8.33;8.33;;;;;17.35;100.00;100511.31;4856633;29;46797;-92
2022/03/11 13:00:34;;;;;;;;;10.00;10.00;;;;;17.40;100.00;100505.22;4865993;29;45592;-91
2022/03/11 13:03:00;;;;;;;;;10.00;9.33;;;;;17.41;100.00;100509.66;4879864;29;45473;-93
2022/03/11 13:05:28;;;;;;;;;7.00;7.00;;;;;17.67;100.00;100515.28;4853287;28;45623;-91
2022/03/11 13:08:00;;;;;;;;;8.00;8.00;;;;;18.03;100.00;100489.13;4915673;28;47445;-91
2022/03/11 13:10:26;;;;;;;;;11.33;9.00;;;;;18.56;100.00;100497.59;4915626;28;45623;-92
2022/03/11 13:12:53;;;;;;;;;6.33;6.33;;;;;19.11;100.00;100495.31;4926293;28;45661;-91
2022/03/11 13:15:26;;;;;;;;;11.67;10.67;;;;;19.58;100.00;100492.03;4941312;28;45454;-92
2022/03/11 13:18:01;;;;;;;;;12.33;8.67;;;;;19.77;100.00;100483.19;4910676;28;46388;-93
2022/03/11 13:20:48;;;;;;;;;10.33;9.33;;;;;19.93;100.00;100487.66;4914404;28;45407;-93
2022/03/11 13:23:24;;;;;;;;;10.33;7.00;;;;;19.87;100.00;100484.09;4925699;28;45641;-92
2022/03/11 13:25:53;;;;;;;;;7.00;6.00;;;;;19.80;100.00;100492.06;4924511;28;45513;-93
2022/03/11 13:28:24;;;;;;;;;7.67;7.67;;;;;19.64;100.00;100478.72;4920067;28;45336;-93
2022/03/11 13:30:51;;;;;;;;;10.00;8.33;;;;;19.48;100.00;100467.16;4927030;28;45616;-93
2022/03/11 13:33:23;;;;;;;;;6.67;5.67;;;;;19.31;100.00;100473.28;4910809;28;45603;-93
2022/03/11 13:36:03;;;;;;;;;11.33;10.00;;;;;19.23;100.00;100480.31;4913074;28;45294;-93
2022/03/11 13:38:44;;;;;;;;;10.33;10.33;;;;;19.14;100.00;100470.50;4911607;28;48200;-93
2022/03/11 13:41:13;;;;;;;;;7.00;6.00;;;;;19.01;100.00;100474.88;4912537;28;45428;-93
2022/03/11 13:43:38;;;;;;;;;7.33;6.00;;;;;18.86;100.00;100457.94;4900842;28;45378;-94
2022/03/11 13:46:05;;;;;;;;;9.00;7.33;;;;;18.83;100.00;100461.47;4913312;28;45516;-93
2022/03/11 13:48:33;;;;;;;;;8.67;7.00;;;;;18.76;100.00;100468.50;4911744;28;46321;-94
2022/03/11 13:51:00;;;;;;;;;9.67;7.00;;;;;18.67;100.00;100467.53;4914930;28;45505;-93
2022/03/11 13:53:28;;;;;;;;;6.33;6.33;;;;;18.58;100.00;100469.25;4915187;28;45439;-92
2022/03/11 13:55:53;;;;;;;;;10.00;9.00;;;;;18.49;100.00;100456.81;4916449;28;45622;-92
2022/03/11 13:58:21;;;;;;;;;11.67;9.67;;;;;18.56;100.00;100468.34;4916659;28;48206;-92
2022/03/11 14:00:48;;;;;;;;;8.00;8.00;;;;;18.56;100.00;100464.81;4932101;28;45947;-92
2022/03/11 14:03:21;;;;;;;;;5.33;5.33;;;;;18.56;100.00;100457.72;4911527;28;45430;-92
2022/03/11 14:05:48;;;;;;;;;9.67;9.67;;;;;18.63;100.00;100462.19;4917878;28;45526;-93
2022/03/11 14:08:25;;;;;;;;;11.67;7.67;;;;;18.78;100.00;100457.00;4953232;28;46417;-92
2022/03/11 14:10:52;;;;;;;;;7.67;7.67;;;;;18.78;100.00;100460.56;4936688;28;45648;-94
2022/03/11 14:13:25;;;;;;;;;7.33;7.00;;;;;18.81;100.00;100459.69;4935432;28;45407;-93
2022/03/11 14:15:51;;;;;;;;;6.67;6.67;;;;;18.80;100.00;100461.44;4920351;28;45704;-92
2022/03/11 14:18:20;;;;;;;;;12.67;10.67;;;;;18.80;100.00;100463.22;4925437;28;47325;-93
2022/03/11 14:20:45;;;;;;;;;10.33;10.00;;;;;18.61;100.00;100466.63;4954720;28;45755;-92
2022/03/11 14:23:11;;;;;;;;;13.33;8.33;;;;;18.51;100.00;100468.31;4939185;28;45644;-93
2022/03/11 14:25:37;;;;;;;;;10.33;8.33;;;;;18.27;100.00;100455.75;4919294;28;45424;-92
2022/03/11 14:28:07;;;;;;;;;15.33;13.67;;;;;18.13;100.00;100463.53;4916650;28;47735;-92
2022/03/11 14:30:33;;;;;;;;;10.67;9.00;;;;;17.96;100.00;100454.53;4921349;28;46167;-91
2022/03/11 14:32:59;;;;;;;;;10.33;9.67;;;;;17.93;100.00;100457.16;4937672;28;50352;-92
2022/03/11 14:35:24;;;;;;;;;7.00;7.00;;;;;17.81;100.00;100460.56;4920921;28;45538;-92
2022/03/11 14:37:50;;;;;;;;;10.67;7.33;;;;;17.74;100.00;100472.91;4933928;28;45617;-92
2022/03/11 14:40:16;;;;;;;;;12.67;11.00;;;;;17.62;100.00;100472.75;4937182;28;45506;-90
2022/03/11 14:42:42;;;;;;;;;15.33;13.00;;;;;17.56;100.00;100476.22;4939717;28;45491;-92
2022/03/11 14:45:10;;;;;;;;;10.33;9.00;;;;;17.50;100.00;100477.03;4926943;28;45955;-90
2022/03/11 14:47:38;;;;;;;;;13.67;12.00;;;;;17.38;100.00;100483.09;4936797;28;45553;-92
2022/03/11 14:50:12;;;;;;;;;12.67;12.00;;;;;17.28;100.00;100483.84;4924160;28;45851;-92
2022/03/11 14:52:39;;;;;;;;;11.00;10.00;;;;;17.16;100.00;100492.53;4919346;28;46436;-91
2022/03/11 14:55:05;;;;;;;;;9.00;7.00;;;;;17.09;100.00;100492.38;4925548;28;45685;-91
2022/03/11 14:57:31;;;;;;;;;8.00;4.00;;;;;16.91;100.00;100505.38;4929679;28;48360;-92
2022/03/11 14:59:57;;;;;;;;;3.00;2.33;;;;;16.75;100.00;100516.63;4933987;28;45500;-92
2022/03/11 15:02:24;;;;;;;;;1.67;1.67;;;;;16.55;100.00;100516.31;4942643;28;45499;-92
2022/03/11 15:04:50;;;;;;;;;1.00;1.00;;;;;16.41;100.00;100505.50;4923549;28;45611;-92
2022/03/11 15:07:15;;;;;;;;;1.00;0.00;;;;;16.28;100.00;100499.06;4919834;28;48182;-92
2022/03/11 15:09:41;;;;;;;;;1.00;1.00;;;;;16.20;100.00;100504.25;4919685;28;45482;-91
2022/03/11 15:12:07;;;;;;;;;1.00;1.00;;;;;16.13;100.00;100497.03;4920829;28;45558;-93
2022/03/11 15:14:33;;;;;;;;;0.00;0.00;;;;;16.08;100.00;100497.84;4919914;28;45507;-92
2022/03/11 15:16:58;;;;;;;;;2.00;2.00;;;;;16.03;100.00;100503.91;4904518;28;47205;-92
2022/03/11 15:19:23;;;;;;;;;1.00;1.00;;;;;16.07;100.00;100511.06;4911998;28;45456;-92
2022/03/11 15:21:49;;;;;;;;;1.33;1.00;;;;;16.10;100.00;100519.06;4898760;28;45519;-91
2022/03/11 15:24:15;;;;;;;;;2.00;2.00;;;;;16.12;100.00;100511.13;4916296;28;45451;-92
2022/03/11 15:26:41;;;;;;;;;1.00;1.00;;;;;16.13;100.00;100495.25;4899941;28;48128;-92
2022/03/11 15:29:07;;;;;;;;;0.67;0.67;;;;;16.20;100.00;100501.59;4903752;28;45521;-92
2022/03/11 15:31:32;;;;;;;;;0.33;0.33;;;;;16.22;100.00;100480.41;4916117;28;45549;-91
2022/03/11 15:33:58;;;;;;;;;0.00;0.00;;;;;16.17;100.00;100477.69;4887529;28;45358;-92
2022/03/11 15:36:23;;;;;;;;;0.00;0.00;;;;;16.19;100.00;100508.63;4911375;28;47202;-91
2022/03/11 15:38:50;;;;;;;;;0.00;0.00;;;;;16.12;100.00;100509.38;4934248;28;45937;-93
2022/03/11 15:41:16;;;;;;;;;2.00;0.00;;;;;15.95;100.00;100524.94;4900487;28;45666;-90
2022/03/11 15:43:41;;;;;;;;;0.00;0.00;;;;;15.80;100.00;100491.97;4900260;28;45551;-90
2022/03/11 15:46:07;;;;;;;;;0.00;0.00;;;;;15.72;100.00;100502.41;4913713;28;45484;-90
2022/03/11 15:48:33;;;;;;;;;0.00;0.00;;;;;15.65;100.00;100500.50;4917117;28;45498;-89
2022/03/11 15:50:58;;;;;;;;;0.00;0.00;;;;;15.57;100.00;100496.81;4913648;28;45544;-90
2022/03/11 15:53:23;;;;;;;;;1.00;0.00;;;;;15.53;100.00;100493.22;4913218;28;45512;-88
2022/03/11 15:55:49;;;;;;;;;1.00;1.00;;;;;15.44;100.00;100483.34;4914639;28;46314;-88
2022/03/11 15:58:15;;;;;;;;;0.00;0.00;;;;;15.43;100.00;100500.09;4929230;28;49404;-89
2022/03/11 16:00:41;;;;;;;;;0.00;0.00;;;;;15.39;100.00;100492.91;4899417;28;45388;-86
2022/03/11 16:03:06;;;;;;;;;0.67;0.67;;;;;15.33;100.00;100498.09;4912157;28;45316;-91
2022/03/11 16:05:34;;;;;;;;;1.00;1.00;;;;;15.33;100.00;100490.16;4905613;28;47726;-96
2022/03/11 16:07:59;;;;;;;;;0.00;0.00;;;;;15.34;100.00;100491.94;4908929;28;45440;-96
2022/03/11 16:10:26;;;;;;;;;0.00;0.00;;;;;15.30;100.00;100491.00;4911163;28;45432;-96
2022/03/11 16:12:54;;;;;;;;;1.00;1.00;;;;;15.30;100.00;100489.25;4927928;28;45415;-96
2022/03/11 16:15:20;;;;;;;;;0.67;0.67;;;;;15.14;100.00;100490.66;4927246;28;48222;-96
2022/03/11 16:17:45;;;;;;;;;2.00;2.00;;;;;15.12;100.00;100486.19;4916472;28;45518;-93
2022/03/11 16:20:11;;;;;;;;;2.00;2.00;;;;;15.08;100.00;100480.81;4898611;28;45711;-93
2022/03/11 16:22:38;;;;;;;;;1.33;0.67;;;;;15.10;100.00;100479.97;4909620;28;45523;-93
2022/03/11 16:25:04;;;;;;;;;2.00;1.00;;;;;15.04;100.00;100467.50;4899959;28;47312;-93
2022/03/11 16:27:29;;;;;;;;;1.33;1.33;;;;;15.15;100.00;100476.56;4924100;28;45528;-93
2022/03/11 16:29:56;;;;;;;;;2.33;2.00;;;;;15.15;100.00;100475.69;4930790;28;45608;-93
2022/03/11 16:32:23;;;;;;;;;2.00;2.00;;;;;15.17;100.00;100482.78;4899093;28;45677;-93
2022/03/11 16:34:48;;;;;;;;;1.67;1.67;;;;;15.17;100.00;100482.78;4909797;28;46329;-94
2022/03/11 16:37:14;;;;;;;;;1.00;1.00;;;;;15.10;100.00;100470.28;4922840;28;45606;-93
2022/03/11 16:39:40;;;;;;;;;1.00;1.00;;;;;15.22;100.00;100487.28;4916843;28;45525;-93
2022/03/11 16:42:06;;;;;;;;;0.33;0.33;;;;;15.24;100.00;100497.03;4910220;28;45315;-93
2022/03/11 16:44:32;;;;;;;;;1.00;1.00;;;;;15.18;100.00;100503.06;4912244;28;47670;-92
2022/03/11 16:46:58;;;;;;;;;1.00;1.00;;;;;15.18;100.00;100500.41;4934606;28;46274;-93
2022/03/11 16:49:24;;;;;;;;;2.00;0.33;;;;;15.16;100.00;100507.44;4916252;28;45368;-91
2022/03/11 16:51:51;;;;;;;;;1.33;1.00;;;;;15.13;100.00;100502.06;4922573;28;45416;-92
2022/03/11 16:54:17;;;;;;;;;1.33;1.33;;;;;15.15;100.00;100508.28;4930497;28;45500;-88
2022/03/11 16:56:43;;;;;;;;;3.00;1.00;;;;;15.15;100.00;100505.63;4923821;28;46980;-89
2022/03/11 16:59:09;;;;;;;;;2.00;2.00;;;;;15.17;100.00;100509.22;4912700;28;45523;-90
2022/03/11 17:01:37;;;;;;;;;9.00;9.00;;;;;15.22;100.00;100513.72;4914359;28;45495;-89
2022/03/11 17:04:03;;;;;;;;;2.00;2.00;;;;;15.17;100.00;100521.53;4906282;28;48067;-89
2022/03/11 17:06:29;;;;;;;;;4.00;3.00;;;;;15.16;100.00;100525.03;4932603;28;45416;-91
2022/03/11 17:08:55;;;;;;;;;2.00;2.00;;;;;15.13;100.00;100517.94;4919894;28;45396;-90
2022/03/11 17:11:21;;;;;;;;;4.67;2.00;;;;;15.19;100.00;100527.75;4943377;28;45632;-90
2022/03/11 17:13:49;;;;;;;;;2.00;2.00;;;;;15.20;100.00;100526.91;4923448;28;45570;-90
2022/03/11 17:16:14;;;;;;;;;3.00;2.00;;;;;15.19;100.00;100519.81;4915546;28;45482;-91
2022/03/11 17:18:40;;;;;;;;;3.00;3.00;;;;;15.21;100.00;100506.63;4927559;28;45367;-90
2022/03/11 17:21:05;;;;;;;;;2.00;2.00;;;;;15.16;100.00;100491.56;4920622;28;45449;-89
2022/03/11 17:23:31;;;;;;;;;3.00;2.00;;;;;15.15;100.00;100486.25;4914068;28;45291;-90
2022/03/11 17:25:56;;;;;;;;;4.00;4.00;;;;;15.12;100.00;100494.13;4914129;28;45716;-90
2022/03/11 17:28:22;;;;;;;;;4.00;4.00;;;;;15.16;100.00;100511.81;4922840;28;45496;-91
2022/03/11 17:30:47;;;;;;;;;3.00;3.00;;;;;15.13;100.00;100517.94;4915250;28;45687;-92
2022/03/11 17:33:13;;;;;;;;;10.33;6.33;;;;;15.15;100.00;100525.91;4913650;28;46120;-93
2022/03/11 17:35:42;;;;;;;;;7.33;5.00;;;;;15.21;100.00;100539.25;4910492;28;45348;-93
2022/03/11 17:38:09;;;;;;;;;4.00;4.00;;;;;15.23;100.00;100550.75;4914265;28;45369;-93
2022/03/11 17:40:35;;;;;;;;;3.00;3.00;;;;;15.21;100.00;100543.63;4922658;28;45571;-92
2022/03/11 17:43:00;;;;;;;;;4.00;4.00;;;;;15.17;100.00;100546.25;4914459;28;46205;-92
2022/03/11 17:45:25;;;;;;;;;3.00;3.00;;;;;15.21;100.00;100544.53;4922302;28;45325;-94
2022/03/11 17:47:52;;;;;;;;;3.33;2.67;;;;;15.21;100.00;100539.25;4916629;28;45418;-93
2022/03/11 17:50:17;;;;;;;;;5.00;5.00;;;;;15.19;100.00;100536.59;4947589;28;45466;-93
2022/03/11 17:52:43;;;;;;;;;4.00;4.00;;;;;15.18;100.00;100534.78;4916104;28;54331;-91
2022/03/11 17:55:10;;;;;;;;;4.67;4.67;;;;;15.20;100.00;100545.41;4912702;28;45884;-93
2022/03/11 17:57:39;;;;;;;;;4.33;4.33;;;;;15.26;100.00;100536.72;4920146;28;45761;-92
2022/03/11 18:00:07;;;;;;;;;8.00;8.00;;;;;15.23;100.00;100548.09;4914382;28;45720;-91
2022/03/11 18:02:32;;;;;;;;;6.33;6.33;;;;;15.16;100.00;100559.41;4914661;28;45383;-92
2022/03/11 18:04:58;;;;;;;;;6.33;6.00;;;;;15.18;100.00;100562.97;4922556;28;45354;-95
2022/03/11 18:07:24;;;;;;;;;5.00;5.00;;;;;15.16;100.00;100562.94;4921236;28;45771;-90
2022/03/11 18:09:50;;;;;;;;;8.33;5.00;;;;;15.14;100.00;100566.41;4933747;28;45469;-92
2022/03/11 18:12:16;;;;;;;;;5.67;4.67;;;;;15.10;100.00;100575.13;4931355;28;45830;-92
2022/03/11 18:14:41;;;;;;;;;4.00;4.00;;;;;15.10;100.00;100570.72;4932334;28;45388;-90
2022/03/11 18:17:09;;;;;;;;;8.00;7.67;;;;;15.07;100.00;100571.56;4934966;28;45586;-91
2022/03/11 18:19:34;;;;;;;;;9.00;8.33;;;;;15.08;100.00;100575.09;4916428;28;46948;-90
2022/03/11 18:22:02;;;;;;;;;9.00;8.00;;;;;15.14;100.00;100575.25;4936361;28;46072;-89
2022/03/11 18:24:27;;;;;;;;;8.67;7.67;;;;;15.10;100.00;100583.06;4938040;28;45448;-90